Time;durP1;ratioP1;P1;durP2;ratioP2;P2;SDS_P1;SDS_P2;PMS_P1;PMS_P2;Temp;Humidity;BMP_temperature;BMP_pressure;BME280_temperature;BME280_humidity;BME280_pressure;Samples;Min_cycle;Max_cycle;Signal;HPM_P1;HPM_P2
2023/10/03 00:01:15;;;;;;;22.53;11.33;;;17.00;99.90;;;;;;5229897;28;20464;-49
2023/10/03 00:03:46;;;;;;;30.13;11.73;;;17.00;99.90;;;;;;5225046;28;20437;-49
2023/10/03 00:06:17;;;;;;;20.57;10.40;;;17.00;99.90;;;;;;5232372;28;20437;-48
2023/10/03 00:08:48;;;;;;;19.20;9.27;;;16.90;99.90;;;;;;5229672;28;20812;-49
2023/10/03 00:11:20;;;;;;;17.07;9.70;;;17.00;99.90;;;;;;5222671;28;20441;-49
2023/10/03 00:13:51;;;;;;;14.10;9.20;;;16.90;99.90;;;;;;5222013;28;20492;-49
2023/10/03 00:16:22;;;;;;;16.67;9.20;;;16.90;99.90;;;;;;5219724;28;20492;-52
2023/10/03 00:18:52;;;;;;;17.90;10.20;;;16.90;99.90;;;;;;5230139;28;20180;-49
2023/10/03 00:21:23;;;;;;;16.30;9.07;;;16.90;99.90;;;;;;5225834;28;20199;-49
2023/10/03 00:23:54;;;;;;;18.40;9.97;;;16.90;99.90;;;;;;5230212;28;20282;-49
2023/10/03 00:26:28;;;;;;;17.13;10.27;;;16.90;99.90;;;;;;5222742;28;20598;-49
2023/10/03 00:28:59;;;;;;;17.63;8.40;;;16.90;99.90;;;;;;5218549;28;20451;-48
2023/10/03 00:31:29;;;;;;;20.30;7.77;;;16.90;99.90;;;;;;5241457;28;20457;-48
2023/10/03 00:34:01;;;;;;;19.20;9.63;;;16.90;99.90;;;;;;5218611;28;20206;-48
2023/10/03 00:36:31;;;;;;;15.03;9.10;;;16.90;99.90;;;;;;5234805;28;20178;-48
2023/10/03 00:39:06;;;;;;;18.20;8.30;;;16.90;99.90;;;;;;5226673;28;20433;-50
2023/10/03 00:41:37;;;;;;;16.33;8.97;;;16.90;99.90;;;;;;5239904;28;20960;-48
2023/10/03 00:44:10;;;;;;;21.37;9.83;;;16.90;99.90;;;;;;5223923;28;20534;-48
2023/10/03 00:46:40;;;;;;;21.20;8.17;;;17.00;99.90;;;;;;5228183;28;21042;-48
2023/10/03 00:49:14;;;;;;;17.07;9.50;;;17.00;99.90;;;;;;5233833;28;20487;-49
2023/10/03 00:51:46;;;;;;;19.80;9.17;;;17.00;99.90;;;;;;5227552;28;20313;-48
2023/10/03 00:54:17;;;;;;;14.07;8.97;;;17.00;99.90;;;;;;5237504;28;20461;-49
2023/10/03 00:56:49;;;;;;;14.27;8.60;;;17.00;99.90;;;;;;5225433;28;20502;-49
2023/10/03 00:59:19;;;;;;;13.70;8.77;;;17.00;99.90;;;;;;5246736;28;20412;-49
2023/10/03 01:01:53;;;;;;;13.80;8.63;;;16.90;99.90;;;;;;5224616;28;20911;-47
2023/10/03 01:04:34;;;;;;;26.63;9.00;;;16.90;99.90;;;;;;5229245;28;20178;-49
2023/10/03 01:07:04;;;;;;;12.03;7.47;;;16.90;99.90;;;;;;5231589;28;20995;-49
2023/10/03 01:09:35;;;;;;;15.13;8.80;;;16.80;99.90;;;;;;5225178;28;20581;-48
2023/10/03 01:12:06;;;;;;;18.10;8.63;;;16.80;99.90;;;;;;5222639;28;20175;-49
2023/10/03 01:14:39;;;;;;;12.57;7.77;;;16.70;99.90;;;;;;5235626;28;20283;-49
2023/10/03 01:17:13;;;;;;;12.33;7.30;;;16.70;99.90;;;;;;5237312;28;20432;-48
2023/10/03 01:19:44;;;;;;;14.63;8.30;;;16.70;99.90;;;;;;5233253;28;20426;-49
2023/10/03 01:22:15;;;;;;;17.97;7.63;;;16.70;99.90;;;;;;5221122;28;20431;-48
2023/10/03 01:24:46;;;;;;;13.97;8.13;;;16.70;99.90;;;;;;5233912;28;20185;-49
2023/10/03 01:27:16;;;;;;;11.37;8.00;;;16.60;99.90;;;;;;5222612;28;20423;-48
2023/10/03 01:29:47;;;;;;;19.80;8.87;;;16.60;99.90;;;;;;5247076;28;20247;-50
2023/10/03 01:32:18;;;;;;;16.27;9.73;;;16.60;99.90;;;;;;5230177;28;20179;-49
2023/10/03 01:34:49;;;;;;;13.67;7.47;;;16.60;99.90;;;;;;5224929;28;20761;-49
2023/10/03 01:37:20;;;;;;;17.87;8.93;;;16.60;99.90;;;;;;5223256;28;20891;-48
2023/10/03 01:39:51;;;;;;;17.10;8.77;;;16.50;99.90;;;;;;5225742;28;20979;-49
2023/10/03 01:42:22;;;;;;;14.73;7.80;;;16.60;99.90;;;;;;5231175;28;20179;-49
2023/10/03 01:44:53;;;;;;;18.40;8.83;;;16.50;99.90;;;;;;5224652;28;20597;-48
2023/10/03 01:47:24;;;;;;;14.90;8.90;;;16.50;99.90;;;;;;5240456;28;20520;-50
2023/10/03 01:49:54;;;;;;;18.63;9.77;;;16.50;99.90;;;;;;5226698;28;20210;-48
2023/10/03 01:52:26;;;;;;;15.93;8.23;;;16.40;99.90;;;;;;5222709;28;20441;-49
2023/10/03 01:54:57;;;;;;;15.10;8.90;;;16.40;99.90;;;;;;5224889;28;20199;-49
2023/10/03 01:57:28;;;;;;;15.90;8.10;;;16.30;99.90;;;;;;5230689;28;20526;-48
2023/10/03 01:59:59;;;;;;;18.50;8.43;;;16.30;99.90;;;;;;5234595;28;20527;-49
2023/10/03 02:02:30;;;;;;;17.30;8.50;;;16.30;99.90;;;;;;5227126;28;20183;-48
2023/10/03 02:05:01;;;;;;;19.10;8.20;;;16.30;99.90;;;;;;5234002;28;20280;-49
2023/10/03 02:07:32;;;;;;;18.53;7.87;;;16.40;99.90;;;;;;5215626;28;20183;-49
2023/10/03 02:10:03;;;;;;;18.37;8.20;;;16.30;99.90;;;;;;5218341;28;20664;-50
2023/10/03 02:12:34;;;;;;;14.50;8.20;;;16.20;99.90;;;;;;5199768;28;20199;-49
2023/10/03 02:15:09;;;;;;;15.27;8.20;;;16.20;99.90;;;;;;5227041;28;20830;-49
2023/10/03 02:17:40;;;;;;;12.90;6.80;;;16.20;99.90;;;;;;5236419;28;20205;-48
2023/10/03 02:20:16;;;;;;;16.20;8.57;;;16.20;99.90;;;;;;5226149;28;20484;-47
2023/10/03 02:22:54;;;;;;;23.10;8.40;;;16.20;99.90;;;;;;5247559;28;20179;-48
2023/10/03 02:25:29;;;;;;;13.73;8.00;;;16.20;99.90;;;;;;5221350;28;20434;-49
2023/10/03 02:27:59;;;;;;;15.77;7.93;;;16.20;99.90;;;;;;5223662;28;20443;-48
2023/10/03 02:30:30;;;;;;;19.73;8.17;;;16.20;99.90;;;;;;5234729;28;20999;-48
2023/10/03 02:33:10;;;;;;;10.83;6.90;;;16.10;99.90;;;;;;5224645;28;20206;-50
2023/10/03 02:35:42;;;;;;;14.27;8.83;;;16.10;99.90;;;;;;5224658;28;20225;-48
2023/10/03 02:38:30;;;;;;;17.17;8.67;;;16.00;99.90;;;;;;5235695;28;20462;-47
2023/10/03 02:41:02;;;;;;;14.70;9.20;;;15.90;99.90;;;;;;5224130;28;20446;-48
2023/10/03 02:43:35;;;;;;;15.30;9.07;;;16.00;99.90;;;;;;5223380;28;20511;-48
2023/10/03 02:46:11;;;;;;;15.77;8.60;;;15.90;99.90;;;;;;5225134;28;20465;-48
2023/10/03 02:48:42;;;;;;;11.33;7.73;;;16.00;99.90;;;;;;5230989;28;20539;-49
2023/10/03 02:51:14;;;;;;;14.43;8.37;;;16.00;99.90;;;;;;5225387;28;20434;-49
2023/10/03 02:53:45;;;;;;;20.20;8.70;;;16.00;99.90;;;;;;5223421;28;20202;-49
2023/10/03 02:56:16;;;;;;;19.47;9.17;;;15.90;99.90;;;;;;5223302;28;20430;-49
2023/10/03 02:58:47;;;;;;;17.07;8.67;;;15.80;99.90;;;;;;5223781;28;20491;-49
2023/10/03 03:01:17;;;;;;;14.00;8.77;;;15.80;99.90;;;;;;5226986;28;20352;-49
2023/10/03 03:03:51;;;;;;;14.43;8.50;;;15.80;99.90;;;;;;5233608;28;20565;-49
2023/10/03 03:06:22;;;;;;;17.87;8.80;;;15.90;99.90;;;;;;5225173;28;20430;-48
2023/10/03 03:08:53;;;;;;;19.87;9.93;;;15.90;99.90;;;;;;5222883;28;20435;-49
2023/10/03 03:11:28;;;;;;;15.00;8.60;;;15.80;99.90;;;;;;5200512;28;20211;-49
2023/10/03 03:13:59;;;;;;;16.23;8.40;;;15.80;99.90;;;;;;5226292;28;20236;-48
2023/10/03 03:16:29;;;;;;;21.33;9.33;;;15.70;99.90;;;;;;5221610;28;20481;-48
2023/10/03 03:19:04;;;;;;;19.40;9.90;;;15.70;99.90;;;;;;5228890;28;20217;-49
2023/10/03 03:21:35;;;;;;;20.90;9.77;;;15.70;99.90;;;;;;5221201;28;20195;-49
2023/10/03 03:24:09;;;;;;;17.07;8.47;;;16.00;99.90;;;;;;5220908;28;21017;-50
2023/10/03 03:26:46;;;;;;;20.00;9.27;;;15.80;99.90;;;;;;5226829;28;20198;-48
2023/10/03 03:29:31;;;;;;;21.03;9.50;;;15.90;99.90;;;;;;5234478;28;20463;-49
2023/10/03 03:32:04;;;;;;;19.37;8.33;;;15.90;99.90;;;;;;5223962;28;20429;-49
2023/10/03 03:34:35;;;;;;;17.57;9.90;;;15.90;99.90;;;;;;5220566;28;20475;-49
2023/10/03 03:37:22;;;;;;;17.90;9.73;;;15.90;99.90;;;;;;5220442;28;20525;-49
2023/10/03 03:39:57;;;;;;;17.70;8.67;;;15.80;99.90;;;;;;5216914;28;20203;-47
2023/10/03 03:42:28;;;;;;;24.00;9.77;;;15.80;99.90;;;;;;5223635;28;20479;-49
2023/10/03 03:44:59;;;;;;;28.67;11.40;;;15.80;99.90;;;;;;5231662;28;20433;-49
2023/10/03 03:47:33;;;;;;;22.67;9.53;;;15.90;99.90;;;;;;5228706;28;20438;-47
2023/10/03 03:50:10;;;;;;;14.77;8.57;;;15.80;99.90;;;;;;5230730;28;20211;-49
2023/10/03 03:52:41;;;;;;;25.20;10.03;;;15.80;99.90;;;;;;5230375;28;20452;-48
2023/10/03 03:55:12;;;;;;;16.27;9.40;;;15.80;99.90;;;;;;5226115;28;20441;-48
2023/10/03 03:57:43;;;;;;;18.40;8.70;;;15.70;99.90;;;;;;5228381;28;20445;-48
2023/10/03 04:00:19;;;;;;;19.97;9.57;;;15.80;99.90;;;;;;5212361;28;20223;-50
2023/10/03 04:02:49;;;;;;;25.10;9.50;;;15.80;99.90;;;;;;5229761;28;20569;-48
2023/10/03 04:05:20;;;;;;;17.10;9.90;;;15.80;99.90;;;;;;5234643;28;20520;-50
2023/10/03 04:07:53;;;;;;;22.23;10.07;;;16.00;99.90;;;;;;5230479;28;20183;-49
2023/10/03 04:10:24;;;;;;;20.30;9.07;;;16.10;99.90;;;;;;5224925;28;20229;-48
2023/10/03 04:12:55;;;;;;;25.57;10.53;;;16.10;99.90;;;;;;5233658;28;20521;-48
2023/10/03 04:15:26;;;;;;;24.17;11.03;;;16.20;99.90;;;;;;5221736;28;21119;-48
2023/10/03 04:17:56;;;;;;;20.47;10.27;;;16.30;99.90;;;;;;5230977;28;20175;-49
2023/10/03 04:20:31;;;;;;;28.57;10.80;;;16.30;99.90;;;;;;5227360;28;20210;-48
2023/10/03 04:23:06;;;;;;;22.43;10.33;;;16.30;99.90;;;;;;5232834;28;20178;-49
2023/10/03 04:25:39;;;;;;;20.00;11.07;;;16.40;99.90;;;;;;5220469;28;20448;-47
2023/10/03 04:28:11;;;;;;;17.33;9.53;;;16.40;99.90;;;;;;5233347;28;20496;-48
2023/10/03 04:30:42;;;;;;;20.80;10.33;;;16.40;99.90;;;;;;5238424;28;20539;-50
2023/10/03 04:33:20;;;;;;;24.07;10.03;;;16.50;99.90;;;;;;5225413;28;20536;-48
2023/10/03 04:35:51;;;;;;;21.10;10.30;;;16.40;99.90;;;;;;5231960;28;20412;-48
2023/10/03 04:38:23;;;;;;;22.50;9.30;;;16.40;99.90;;;;;;5229779;28;20461;-48
2023/10/03 04:40:54;;;;;;;22.17;10.80;;;16.50;99.90;;;;;;5228541;28;20210;-48
2023/10/03 04:43:29;;;;;;;20.43;10.00;;;16.50;99.90;;;;;;5224835;28;20824;-49
2023/10/03 04:46:01;;;;;;;23.00;9.30;;;16.40;99.90;;;;;;5229159;28;20541;-48
2023/10/03 04:48:32;;;;;;;25.57;9.80;;;16.30;99.90;;;;;;5229196;28;20436;-48
2023/10/03 04:51:03;;;;;;;28.27;11.73;;;16.40;99.90;;;;;;5229125;28;20444;-49
2023/10/03 04:53:34;;;;;;;26.40;11.60;;;16.40;99.90;;;;;;5233303;28;20680;-48
2023/10/03 04:56:04;;;;;;;20.43;11.87;;;16.40;99.90;;;;;;5226652;28;20442;-48
2023/10/03 04:58:35;;;;;;;21.20;10.30;;;16.60;99.90;;;;;;5223496;28;20179;-48
2023/10/03 05:01:06;;;;;;;25.53;11.47;;;16.70;99.90;;;;;;5226800;28;20571;-48
2023/10/03 05:03:38;;;;;;;21.20;10.90;;;16.70;99.90;;;;;;5231185;28;20273;-48
2023/10/03 05:06:11;;;;;;;23.20;11.33;;;16.70;99.90;;;;;;5230726;28;20983;-48
2023/10/03 05:08:42;;;;;;;23.30;11.23;;;16.80;99.90;;;;;;5234576;28;20455;-49
2023/10/03 05:11:13;;;;;;;23.53;10.90;;;16.90;99.90;;;;;;5231642;28;20831;-49
2023/10/03 05:13:45;;;;;;;18.67;10.80;;;16.80;99.90;;;;;;5224794;28;20206;-48
2023/10/03 05:16:16;;;;;;;23.00;10.67;;;16.80;99.90;;;;;;5217858;28;20441;-48
2023/10/03 05:18:46;;;;;;;20.30;11.77;;;16.80;99.90;;;;;;5236177;28;20436;-48
2023/10/03 05:21:17;;;;;;;24.53;11.00;;;16.80;99.90;;;;;;5238710;28;20230;-49
2023/10/03 05:23:48;;;;;;;25.90;10.53;;;17.00;99.90;;;;;;5229742;28;20257;-49
2023/10/03 05:26:19;;;;;;;25.83;10.30;;;17.00;99.90;;;;;;5225527;28;20253;-49
2023/10/03 05:28:55;;;;;;;25.17;10.73;;;17.10;99.90;;;;;;5230459;28;20190;-49
2023/10/03 05:31:26;;;;;;;24.57;10.63;;;17.00;99.90;;;;;;5223031;28;20825;-48
2023/10/03 05:33:57;;;;;;;27.20;12.07;;;17.10;99.90;;;;;;5223472;28;20466;-48
2023/10/03 05:36:28;;;;;;;25.93;10.70;;;17.30;99.90;;;;;;5227843;28;20253;-48
2023/10/03 05:38:58;;;;;;;26.53;11.03;;;17.20;99.90;;;;;;5233693;28;20480;-50
2023/10/03 05:41:29;;;;;;;23.03;10.70;;;17.20;99.90;;;;;;5208856;28;20211;-49
2023/10/03 05:44:00;;;;;;;24.10;10.27;;;17.10;99.90;;;;;;5211789;28;20263;-48
2023/10/03 05:46:32;;;;;;;26.07;10.93;;;17.10;99.90;;;;;;5217620;28;20191;-48
2023/10/03 05:49:02;;;;;;;30.83;11.73;;;17.30;99.90;;;;;;5223551;28;20184;-49
2023/10/03 05:51:34;;;;;;;25.23;11.43;;;17.30;99.90;;;;;;5241292;28;20456;-50
2023/10/03 05:54:05;;;;;;;22.80;11.10;;;17.40;99.90;;;;;;5229908;28;20741;-48
2023/10/03 05:56:37;;;;;;;25.13;10.70;;;17.40;99.90;;;;;;5239872;28;20463;-48
2023/10/03 05:59:07;;;;;;;22.27;10.23;;;17.50;99.90;;;;;;5226373;28;20496;-49
2023/10/03 06:01:38;;;;;;;19.73;11.10;;;17.60;99.90;;;;;;5229826;28;20470;-49
2023/10/03 06:04:09;;;;;;;28.20;11.27;;;17.60;99.90;;;;;;5235473;28;20171;-49
2023/10/03 06:06:40;;;;;;;23.80;11.50;;;17.60;99.90;;;;;;5225195;28;20195;-49
2023/10/03 06:09:11;;;;;;;24.50;12.53;;;17.70;99.90;;;;;;5229154;28;20191;-49
2023/10/03 06:11:42;;;;;;;22.47;10.57;;;17.80;99.90;;;;;;5231200;28;20513;-48
2023/10/03 06:14:14;;;;;;;25.43;10.70;;;17.80;99.90;;;;;;5234772;28;20198;-49
2023/10/03 06:16:45;;;;;;;29.57;12.80;;;17.90;99.90;;;;;;5237165;28;20432;-50
2023/10/03 06:19:18;;;;;;;27.00;11.63;;;18.00;99.90;;;;;;5231422;28;20424;-48
2023/10/03 06:21:48;;;;;;;29.00;12.33;;;18.00;99.90;;;;;;5239147;28;20510;-49
2023/10/03 06:24:19;;;;;;;23.07;11.47;;;18.00;99.90;;;;;;5235200;28;20506;-49
2023/10/03 06:26:50;;;;;;;28.50;13.00;;;18.00;99.90;;;;;;5205259;28;20191;-49
2023/10/03 06:29:23;;;;;;;17.20;10.87;;;18.10;99.90;;;;;;5230997;28;20437;-49
2023/10/03 06:31:54;;;;;;;29.43;11.77;;;18.00;99.90;;;;;;5224249;28;20199;-48
2023/10/03 06:34:25;;;;;;;23.93;11.00;;;18.00;99.90;;;;;;5222628;28;20464;-49
2023/10/03 06:36:56;;;;;;;26.47;11.60;;;18.10;99.90;;;;;;5223543;28;20535;-48
2023/10/03 06:39:27;;;;;;;29.13;11.10;;;18.20;99.90;;;;;;5221925;28;20425;-49
2023/10/03 06:41:58;;;;;;;26.47;12.00;;;18.30;99.90;;;;;;5221805;28;20450;-49
2023/10/03 06:44:29;;;;;;;22.67;11.47;;;18.30;99.90;;;;;;5235069;28;20182;-49
2023/10/03 06:47:00;;;;;;;26.80;12.10;;;18.40;99.90;;;;;;5237868;28;20444;-48
2023/10/03 06:49:31;;;;;;;23.67;11.37;;;18.70;99.90;;;;;;5221500;28;20669;-50
2023/10/03 06:52:03;;;;;;;25.93;12.30;;;18.70;99.90;;;;;;5226852;28;20430;-51
2023/10/03 06:54:34;;;;;;;29.53;12.27;;;18.90;99.90;;;;;;5231402;28;20217;-48
2023/10/03 06:57:05;;;;;;;25.10;11.33;;;19.00;99.90;;;;;;5226670;28;20437;-50
2023/10/03 06:59:36;;;;;;;22.27;12.17;;;19.30;99.90;;;;;;5228729;28;20595;-48
2023/10/03 07:02:08;;;;;;;25.67;11.67;;;19.40;99.90;;;;;;5235761;28;20429;-50
2023/10/03 07:04:38;;;;;;;25.77;12.93;;;19.60;99.90;;;;;;5227943;28;20182;-49
2023/10/03 07:07:10;;;;;;;32.00;12.10;;;19.80;99.90;;;;;;5230203;28;20449;-48
2023/10/03 07:09:41;;;;;;;23.30;12.17;;;20.10;99.90;;;;;;5237438;28;20183;-48
2023/10/03 07:12:12;;;;;;;26.80;11.57;;;20.40;99.90;;;;;;5224895;28;20463;-49
2023/10/03 07:14:46;;;;;;;24.50;12.40;;;20.60;99.90;;;;;;5222527;28;20203;-50
2023/10/03 07:17:16;;;;;;;30.40;12.50;;;20.60;99.90;;;;;;5226599;28;20800;-49
2023/10/03 07:19:48;;;;;;;22.17;10.93;;;20.60;99.90;;;;;;5239220;28;20435;-50
2023/10/03 07:22:19;;;;;;;29.53;12.07;;;20.60;99.90;;;;;;5225461;28;20180;-49
2023/10/03 07:24:51;;;;;;;29.47;11.10;;;20.50;99.90;;;;;;5236827;28;20428;-49
2023/10/03 07:27:21;;;;;;;24.87;12.03;;;20.60;99.90;;;;;;5214636;28;20191;-49
2023/10/03 07:29:52;;;;;;;28.53;13.10;;;20.90;99.90;;;;;;5228354;28;20509;-50
2023/10/03 07:32:23;;;;;;;27.10;13.43;;;21.10;99.90;;;;;;5225824;28;20214;-49
2023/10/03 07:34:57;;;;;;;33.87;13.13;;;21.80;99.90;;;;;;5220602;28;20507;-48
2023/10/03 07:37:28;;;;;;;29.50;13.70;;;22.20;99.90;;;;;;5224256;28;20192;-50
2023/10/03 07:39:59;;;;;;;34.67;13.30;;;22.30;99.90;;;;;;5232749;28;20440;-50
2023/10/03 07:42:33;;;;;;;27.93;13.13;;;22.40;99.90;;;;;;5230531;28;20429;-49
2023/10/03 07:45:05;;;;;;;30.20;13.57;;;22.30;99.90;;;;;;5228832;28;20885;-50
2023/10/03 07:47:41;;;;;;;30.63;12.50;;;22.30;99.90;;;;;;5226914;28;20448;-49
2023/10/03 07:50:13;;;;;;;28.37;12.30;;;22.10;99.90;;;;;;5225864;28;20461;-49
2023/10/03 07:52:48;;;;;;;35.00;12.10;;;22.20;99.90;;;;;;5229508;28;20464;-49
2023/10/03 07:55:19;;;;;;;34.00;12.40;;;22.10;99.90;;;;;;5232528;28;20448;-49
2023/10/03 07:57:54;;;;;;;34.67;13.37;;;22.10;99.90;;;;;;5240300;28;20429;-50
2023/10/03 08:00:26;;;;;;;27.97;12.80;;;22.10;99.90;;;;;;5224482;28;20264;-49
2023/10/03 08:02:57;;;;;;;30.13;13.23;;;22.30;99.90;;;;;;5228809;28;20436;-50
2023/10/03 08:05:27;;;;;;;31.23;13.43;;;22.30;99.90;;;;;;5221660;28;20437;-49
2023/10/03 08:08:02;;;;;;;37.27;13.40;;;22.50;99.90;;;;;;5214414;28;20180;-50
2023/10/03 08:10:33;;;;;;;30.47;13.50;;;22.70;99.90;;;;;;5239578;28;20231;-50
2023/10/03 08:13:05;;;;;;;25.00;12.73;;;22.90;99.90;;;;;;5232616;28;20450;-51
2023/10/03 08:15:35;;;;;;;26.60;12.07;;;23.00;99.60;;;;;;5244150;28;20546;-51
2023/10/03 08:18:17;;;;;;;30.70;13.93;;;23.20;99.40;;;;;;5239246;28;20435;-50
2023/10/03 08:20:53;;;;;;;25.87;11.80;;;23.30;99.30;;;;;;5233779;28;20198;-50
2023/10/03 08:23:24;;;;;;;34.37;13.70;;;23.30;99.00;;;;;;5216495;28;20442;-51
2023/10/03 08:26:01;;;;;;;32.27;13.03;;;23.50;98.30;;;;;;5220898;28;20438;-52
2023/10/03 08:28:32;;;;;;;30.13;12.60;;;23.50;98.30;;;;;;5223613;28;20448;-51
2023/10/03 08:31:06;;;;;;;28.23;12.50;;;23.50;97.80;;;;;;5230600;28;20482;-51
2023/10/03 08:33:37;;;;;;;38.47;12.93;;;23.40;97.50;;;;;;5222139;28;20453;-50
2023/10/03 08:36:53;;;;;;;26.13;12.93;;;23.20;97.90;;;;;;5231586;28;20506;-53
2023/10/03 08:39:13;;;;;;;20.37;10.73;;;23.20;97.50;;;;;;5216638;28;20187;-51
2023/10/03 08:41:53;;;;;;;29.17;11.37;;;23.30;97.80;;;;;;5225444;28;20527;-51
2023/10/03 08:44:24;;;;;;;35.30;14.57;;;23.40;97.80;;;;;;5223446;28;20520;-51
2023/10/03 08:46:56;;;;;;;23.50;11.03;;;23.50;97.30;;;;;;5227763;28;20476;-50
2023/10/03 08:49:28;;;;;;;33.63;12.53;;;23.80;97.10;;;;;;5233440;28;20510;-51
2023/10/03 08:52:01;;;;;;;28.67;12.63;;;24.10;96.10;;;;;;5233921;28;20448;-51
2023/10/03 08:54:37;;;;;;;26.37;12.47;;;24.30;95.80;;;;;;5222585;28;20540;-51
2023/10/03 08:57:11;;;;;;;26.07;12.90;;;24.30;95.00;;;;;;5229888;28;20444;-51
2023/10/03 08:59:41;;;;;;;28.90;11.90;;;24.20;94.80;;;;;;5224289;28;20511;-51
2023/10/03 09:02:14;;;;;;;29.47;11.67;;;24.00;94.90;;;;;;5233254;28;20441;-51
2023/10/03 09:04:45;;;;;;;30.03;14.40;;;24.00;94.50;;;;;;5226860;28;20256;-51
2023/10/03 09:07:16;;;;;;;24.47;11.77;;;23.80;94.60;;;;;;5224399;28;20508;-52
2023/10/03 09:09:46;;;;;;;25.50;11.40;;;23.70;95.00;;;;;;5229214;28;20596;-51
2023/10/03 09:12:20;;;;;;;22.97;11.60;;;23.80;95.20;;;;;;5233891;28;20282;-52
2023/10/03 09:14:53;;;;;;;30.00;13.37;;;23.60;95.00;;;;;;5236135;28;20210;-52
2023/10/03 09:17:24;;;;;;;37.00;13.63;;;23.60;95.00;;;;;;5230702;28;20440;-52
2023/10/03 09:20:00;;;;;;;18.83;10.20;;;23.60;95.00;;;;;;5224437;28;20450;-51
2023/10/03 09:22:30;;;;;;;34.43;13.20;;;23.50;95.00;;;;;;5222422;28;20894;-52
2023/10/03 09:25:01;;;;;;;29.80;12.57;;;23.50;94.90;;;;;;5233362;28;20421;-50
2023/10/03 09:27:32;;;;;;;27.53;11.97;;;23.50;95.10;;;;;;5204455;28;20184;-52
2023/10/03 09:30:22;;;;;;;29.47;12.20;;;23.50;95.00;;;;;;5222282;28;20203;-53
2023/10/03 09:32:54;;;;;;;30.87;12.80;;;23.70;95.00;;;;;;5225061;28;20235;-52
2023/10/03 09:35:28;;;;;;;38.73;12.30;;;23.70;94.90;;;;;;5226909;28;20469;-52
2023/10/03 09:38:02;;;;;;;27.60;12.17;;;23.80;94.70;;;;;;5218479;28;20430;-52
2023/10/03 09:40:52;;;;;;;34.83;12.37;;;23.90;94.60;;;;;;5225230;28;20896;-52
2023/10/03 09:43:27;;;;;;;32.83;11.53;;;23.90;94.20;;;;;;5229074;28;20436;-51
2023/10/03 09:46:00;;;;;;;36.87;13.70;;;23.90;94.40;;;;;;5208947;28;20432;-53
2023/10/03 09:48:31;;;;;;;26.53;12.80;;;24.00;94.20;;;;;;5220375;28;20536;-52
2023/10/03 09:51:05;;;;;;;29.07;12.03;;;24.20;94.20;;;;;;5213402;28;20532;-52
2023/10/03 09:53:39;;;;;;;32.80;13.30;;;24.10;94.30;;;;;;5222889;28;20461;-53
2023/10/03 09:56:13;;;;;;;35.70;13.23;;;24.30;94.20;;;;;;5221588;28;20777;-52
2023/10/03 09:58:46;;;;;;;30.67;12.20;;;24.10;94.00;;;;;;5223243;28;20440;-52
2023/10/03 10:01:18;;;;;;;29.30;11.17;;;24.00;94.20;;;;;;5225521;28;20484;-52
2023/10/03 10:03:50;;;;;;;28.43;12.50;;;24.00;94.40;;;;;;5226518;28;20430;-52
2023/10/03 10:06:37;;;;;;;30.07;12.20;;;24.10;94.60;;;;;;5222237;28;20433;-51
2023/10/03 10:09:23;;;;;;;22.60;12.03;;;24.10;94.40;;;;;;5221503;28;20445;-54
2023/10/03 10:12:10;;;;;;;24.40;11.30;;;24.30;94.40;;;;;;5219254;28;20453;-51
2023/10/03 10:15:00;;;;;;;24.00;11.43;;;24.40;93.70;;;;;;5228087;28;20471;-53
2023/10/03 10:17:46;;;;;;;25.87;10.87;;;24.50;93.60;;;;;;5218750;28;20466;-54
2023/10/03 10:20:27;;;;;;;26.40;11.90;;;24.60;93.80;;;;;;5228199;28;20456;-51
2023/10/03 10:25:49;;;;;;;26.13;11.67;;;24.60;93.50;;;;;;5229814;28;20860;-53
2023/10/03 10:28:34;;;;;;;23.30;10.87;;;24.60;93.20;;;;;;5225575;28;20433;-54
2023/10/03 10:31:11;;;;;;;26.00;11.67;;;24.70;93.30;;;;;;5223748;28;20959;-53
2023/10/03 10:33:42;;;;;;;26.27;11.63;;;24.90;93.10;;;;;;5220246;28;20992;-52
2023/10/03 10:36:13;;;;;;;26.40;11.40;;;25.00;92.90;;;;;;5225816;28;20885;-52
2023/10/03 10:38:44;;;;;;;24.67;11.23;;;25.10;92.70;;;;;;5221683;28;20520;-54
2023/10/03 10:41:17;;;;;;;29.60;11.47;;;25.10;92.20;;;;;;5216153;28;20202;-53
2023/10/03 10:44:21;;;;;;;25.30;11.07;;;25.20;91.80;;;;;;5216086;28;20183;-51
2023/10/03 10:47:07;;;;;;;25.47;11.23;;;25.20;91.80;;;;;;5218025;28;20898;-50
2023/10/03 10:49:39;;;;;;;24.10;12.00;;;25.40;91.50;;;;;;5218277;28;20442;-53
2023/10/03 10:52:10;;;;;;;25.03;11.13;;;25.50;90.90;;;;;;5223125;28;20417;-53
2023/10/03 10:54:42;;;;;;;29.67;11.90;;;25.60;90.50;;;;;;5230488;28;20843;-51
2023/10/03 10:57:21;;;;;;;26.73;10.30;;;25.70;90.20;;;;;;5212594;28;20170;-52
2023/10/03 10:59:54;;;;;;;22.33;11.07;;;25.70;90.00;;;;;;5212296;28;20556;-53
2023/10/03 11:02:28;;;;;;;16.77;9.30;;;25.70;89.00;;;;;;5221312;28;20754;-52
2023/10/03 11:05:01;;;;;;;23.77;10.73;;;25.70;88.00;;;;;;5224167;28;20437;-52
2023/10/03 11:07:33;;;;;;;22.77;11.13;;;25.80;87.30;;;;;;5227696;28;20791;-50
2023/10/03 11:10:07;;;;;;;20.93;9.30;;;25.80;86.60;;;;;;5224059;28;20462;-53
2023/10/03 11:12:38;;;;;;;17.57;8.77;;;25.90;84.30;;;;;;5220536;28;20440;-53
2023/10/03 11:15:12;;;;;;;19.80;9.40;;;25.90;84.10;;;;;;5230667;28;20466;-53
2023/10/03 11:17:49;;;;;;;19.23;8.80;;;25.90;83.90;;;;;;5219735;28;20175;-52
2023/10/03 11:20:20;;;;;;;16.57;8.40;;;25.90;82.20;;;;;;5225162;28;20899;-52
2023/10/03 11:22:51;;;;;;;21.57;8.87;;;26.00;81.90;;;;;;5222741;28;20497;-53
2023/10/03 11:25:22;;;;;;;24.10;8.80;;;25.90;81.40;;;;;;5234474;28;20655;-52
2023/10/03 11:27:54;;;;;;;17.83;8.17;;;25.90;81.10;;;;;;5227078;28;20722;-52
2023/10/03 11:30:25;;;;;;;20.57;9.47;;;25.90;80.90;;;;;;5193744;28;20511;-53
2023/10/03 11:33:02;;;;;;;21.97;10.00;;;25.80;81.40;;;;;;5222918;28;20440;-54
2023/10/03 11:35:35;;;;;;;17.47;9.20;;;25.80;80.90;;;;;;5222892;28;20440;-52
2023/10/03 11:38:06;;;;;;;22.77;9.20;;;25.80;81.10;;;;;;5222156;28;20496;-53
2023/10/03 11:40:40;;;;;;;20.77;9.40;;;25.80;80.40;;;;;;5224830;28;20925;-53
2023/10/03 11:43:10;;;;;;;21.90;9.10;;;25.70;80.70;;;;;;5243060;28;20187;-52
2023/10/03 11:45:46;;;;;;;21.50;9.47;;;25.70;80.20;;;;;;5224584;28;20529;-51
2023/10/03 11:48:22;;;;;;;17.80;9.20;;;25.70;80.80;;;;;;5226896;28;20192;-53
2023/10/03 11:50:53;;;;;;;20.30;9.60;;;25.60;80.90;;;;;;5223839;28;20535;-54
2023/10/03 11:53:24;;;;;;;16.40;8.63;;;25.40;81.20;;;;;;5226145;28;20468;-52
2023/10/03 11:55:56;;;;;;;14.03;7.00;;;25.20;81.50;;;;;;5224284;28;20198;-53
2023/10/03 11:58:27;;;;;;;16.40;8.67;;;25.10;82.20;;;;;;5222861;28;20179;-52
2023/10/03 12:00:57;;;;;;;19.67;9.17;;;25.00;82.50;;;;;;5234369;28;20534;-53
2023/10/03 12:03:30;;;;;;;18.60;7.90;;;25.00;82.80;;;;;;5222779;28;20502;-52
2023/10/03 12:06:00;;;;;;;25.10;9.90;;;24.80;83.00;;;;;;5229413;28;20183;-52
2023/10/03 12:08:32;;;;;;;19.07;8.50;;;24.80;84.50;;;;;;5204766;28;21048;-52
2023/10/03 12:11:05;;;;;;;17.60;8.40;;;24.50;85.80;;;;;;5207047;28;20676;-51
2023/10/03 12:13:36;;;;;;;17.40;8.87;;;24.40;87.90;;;;;;5224900;28;20610;-51
2023/10/03 12:16:07;;;;;;;20.37;9.80;;;24.30;89.70;;;;;;5218189;28;20521;-52
2023/10/03 12:18:38;;;;;;;25.73;12.40;;;24.30;90.00;;;;;;5227800;28;20520;-52
2023/10/03 12:21:09;;;;;;;17.80;9.67;;;24.40;90.10;;;;;;5227650;28;20729;-52
2023/10/03 12:23:40;;;;;;;17.73;9.20;;;24.50;90.30;;;;;;5224293;28;20187;-52
2023/10/03 12:26:11;;;;;;;14.80;8.07;;;24.50;89.00;;;;;;5221246;28;20997;-54
2023/10/03 12:28:42;;;;;;;35.53;13.77;;;24.40;89.20;;;;;;5224450;28;20182;-51
2023/10/03 12:31:13;;;;;;;22.03;9.40;;;24.30;88.80;;;;;;5232639;28;20445;-52
2023/10/03 12:33:44;;;;;;;13.97;8.13;;;24.40;89.30;;;;;;5226408;28;20871;-52
2023/10/03 12:36:16;;;;;;;17.70;9.27;;;24.40;89.60;;;;;;5236191;28;20691;-52
2023/10/03 12:38:48;;;;;;;21.27;11.47;;;24.50;89.20;;;;;;5216439;28;20180;-52
2023/10/03 12:41:20;;;;;;;18.90;10.20;;;24.60;89.10;;;;;;5217930;28;20461;-52
2023/10/03 12:43:51;;;;;;;18.10;8.57;;;24.70;89.00;;;;;;5206743;28;20842;-51
2023/10/03 12:46:23;;;;;;;15.20;8.07;;;24.80;88.70;;;;;;5210814;28;20495;-52
2023/10/03 12:48:54;;;;;;;14.67;7.47;;;24.90;87.90;;;;;;5219715;28;20593;-52
2023/10/03 12:51:25;;;;;;;19.80;7.90;;;25.00;87.20;;;;;;5217497;28;20466;-52
2023/10/03 12:53:55;;;;;;;16.43;8.20;;;24.90;87.10;;;;;;5213896;28;20462;-51
2023/10/03 12:56:27;;;;;;;13.70;7.30;;;24.70;87.00;;;;;;5211832;28;20176;-52
2023/10/03 12:58:58;;;;;;;20.83;9.20;;;24.50;87.40;;;;;;5221349;28;20232;-51
2023/10/03 13:01:28;;;;;;;17.73;8.00;;;24.30;89.10;;;;;;5216513;28;20853;-52